Time;durP1;ratioP1;P1;durP2;ratioP2;P2;SDS_P1;SDS_P2;PMS_P1;PMS_P2;Temp;Humidity;BMP_temperature;BMP_pressure;BME280_temperature;BME280_humidity;BME280_pressure;Samples;Min_cycle;Max_cycle;Signal;HPM_P1;HPM_P2
2022/05/03 00:02:02;;;;;;;38.70;20.80;;;;;;;10.40;39.14;98795.09;105571;1283;95304;-67
2022/05/03 00:05:09;;;;;;;37.90;20.40;;;;;;;10.48;39.35;98794.31;105652;1283;112082;-67
2022/05/03 00:07:41;;;;;;;;;;;;;;;10.54;39.42;98793.69;105594;1284;95390;-67
2022/05/03 00:10:34;;;;;;;40.50;20.60;;;;;;;10.53;39.39;98790.96;105543;1283;108212;-65
2022/05/03 00:13:12;;;;;;;38.10;18.60;;;;;;;10.49;38.89;98792.86;105619;1283;96406;-66
2022/05/03 00:15:43;;;;;;;33.20;17.40;;;;;;;10.37;39.03;98788.71;105674;1283;95294;-68
2022/05/03 00:18:11;;;;;;;33.00;17.70;;;;;;;10.29;39.21;98793.95;105624;1283;111444;-66
2022/05/03 00:20:46;;;;;;;37.20;19.20;;;;;;;10.26;39.59;98792.44;105625;1283;97889;-67
2022/05/03 00:23:18;;;;;;;33.50;18.00;;;;;;;10.32;39.84;98788.80;105617;1283;107717;-68
2022/05/03 00:25:51;;;;;;;35.80;18.20;;;;;;;10.37;39.72;98790.71;105610;1283;95333;-68
2022/05/03 00:28:23;;;;;;;35.60;19.90;;;;;;;10.32;39.58;98795.89;105574;1283;97872;-67
2022/05/03 00:30:56;;;;;;;37.20;21.30;;;;;;;10.10;39.79;98794.52;105593;1283;111820;-68
2022/05/03 00:33:24;;;;;;;35.90;19.40;;;;;;;9.88;40.11;98791.36;105629;1283;97484;-70
2022/05/03 00:35:55;;;;;;;40.60;22.30;;;;;;;9.78;40.37;98791.85;105620;1283;107725;-67
2022/05/03 00:38:27;;;;;;;39.00;22.40;;;;;;;9.79;40.70;98793.45;105591;1283;95265;-67
2022/05/03 00:41:04;;;;;;;41.60;22.00;;;;;;;9.84;40.68;98791.10;105617;1283;97945;-66
2022/05/03 00:43:50;;;;;;;41.90;22.40;;;;;;;9.89;40.81;98788.77;105579;1283;111421;-67
2022/05/03 00:46:25;;;;;;;37.40;20.40;;;;;;;9.97;41.09;98782.53;105654;1283;95236;-67
2022/05/03 00:49:35;;;;;;;36.50;19.60;;;;;;;10.05;41.12;98779.63;105612;1283;107749;-67
2022/05/03 00:52:15;;;;;;;38.00;21.20;;;;;;;10.14;41.29;98778.98;105626;1283;98605;-65
2022/05/03 00:54:53;;;;;;;36.20;20.70;;;;;;;10.21;41.36;98778.27;105580;1282;95192;-67
2022/05/03 00:57:57;;;;;;;36.20;20.30;;;;;;;10.26;41.40;98774.14;105625;1283;111126;-66
2022/05/03 01:00:30;;;;;;;38.20;21.40;;;;;;;10.28;41.59;98773.86;105562;1282;97913;-65
2022/05/03 01:03:20;;;;;;;39.90;21.30;;;;;;;10.27;41.01;98771.73;105575;1283;107770;-67
2022/05/03 01:06:06;;;;;;;42.50;22.10;;;;;;;10.06;40.80;98776.23;105534;1284;96357;-69
2022/05/03 01:09:00;;;;;;;38.80;22.00;;;;;;;9.80;41.39;98777.94;105603;1283;96471;-66
2022/05/03 01:11:44;;;;;;;35.60;19.90;;;;;;;9.71;41.41;98783.54;105655;1283;109183;-69
2022/05/03 01:14:23;;;;;;;44.10;23.90;;;;;;;9.64;41.28;98783.50;105609;1282;95278;-70
2022/05/03 01:17:08;;;;;;;43.30;24.90;;;;;;;9.56;41.87;98783.98;105606;1283;107784;-69
2022/05/03 01:19:59;;;;;;;42.00;21.80;;;;;;;9.56;42.08;98785.02;105540;1283;98092;-67
2022/05/03 01:22:58;;;;;;;40.20;23.60;;;;;;;9.60;42.14;98784.00;105567;1283;97886;-68
2022/05/03 01:25:51;;;;;;;42.00;24.10;;;;;;;9.65;42.37;98784.88;105540;1283;112773;-69
2022/05/03 01:29:04;;;;;;;40.40;23.50;;;;;;;9.71;42.47;98785.20;105483;1283;98100;-68
2022/05/03 01:31:39;;;;;;;46.70;24.10;;;;;;;9.76;42.64;98783.90;105111;1284;108513;-68
2022/05/03 01:34:12;;;;;;;39.90;23.00;;;;;;;9.83;42.67;98779.45;105624;1283;98013;-69
2022/05/03 01:36:59;;;;;;;38.10;21.20;;;;;;;9.90;42.82;98781.08;105662;1283;97893;-68
2022/05/03 01:39:38;;;;;;;37.80;22.50;;;;;;;9.98;42.97;98780.17;105620;1283;112042;-68
2022/05/03 01:42:12;;;;;;;39.10;22.40;;;;;;;10.05;42.99;98781.42;105634;1283;95218;-68
2022/05/03 01:44:53;;;;;;;42.80;23.50;;;;;;;10.09;43.04;98783.77;105477;1284;108338;-68
2022/05/03 01:47:56;;;;;;;36.10;20.80;;;;;;;10.12;43.14;98780.31;105504;1283;98429;-68
2022/05/03 01:50:32;;;;;;;32.00;17.20;;;;;;;10.17;43.06;98779.98;105601;1283;96422;-68
2022/05/03 01:53:34;;;;;;;31.80;16.60;;;;;;;10.18;43.00;98786.30;105597;1283;112094;-67
2022/05/03 01:56:09;;;;;;;29.00;15.20;;;;;;;10.21;43.05;98785.73;105588;1283;97961;-66
2022/05/03 01:59:06;;;;;;;26.70;14.00;;;;;;;10.23;43.01;98784.27;105495;1284;108342;-68
2022/05/03 02:01:42;;;;;;;28.10;14.00;;;;;;;10.24;43.16;98784.19;105533;1283;97887;-67
2022/05/03 02:04:26;;;;;;;25.50;13.60;;;;;;;10.28;43.17;98778.96;105580;1283;98480;-69
2022/05/03 02:07:27;;;;;;;30.00;14.50;;;;;;;10.26;42.71;98779.09;105571;1283;110089;-69
2022/05/03 02:10:17;;;;;;;28.20;13.80;;;;;;;10.18;43.19;98779.20;105600;1283;97893;-70
2022/05/03 02:13:07;;;;;;;28.10;13.40;;;;;;;10.15;43.04;98779.23;105529;1283;108552;-69
2022/05/03 02:15:43;;;;;;;29.70;16.00;;;;;;;10.05;42.94;98779.64;105479;1283;98560;-68
2022/05/03 02:18:47;;;;;;;27.90;13.80;;;;;;;9.94;43.42;98782.57;105535;1283;97956;-67
2022/05/03 02:21:32;;;;;;;28.00;13.80;;;;;;;9.95;43.44;98786.04;105583;1283;112041;-68
2022/05/03 02:23:59;;;;;;;27.10;12.90;;;;;;;9.96;43.49;98781.91;105561;1282;97996;-67
2022/05/03 02:26:28;;;;;;;28.90;13.70;;;;;;;9.97;43.60;98780.08;105591;1283;108354;-67
2022/05/03 02:29:07;;;;;;;29.40;14.60;;;;;;;10.01;43.87;98781.36;105600;1282;97116;-68
2022/05/03 02:31:38;;;;;;;26.10;12.60;;;;;;;10.07;43.96;98778.07;105630;1283;97905;-68
2022/05/03 02:34:29;;;;;;;26.10;12.90;;;;;;;10.09;43.71;98773.80;105574;1283;111609;-69
2022/05/03 02:37:13;;;;;;;26.70;13.20;;;;;;;10.04;43.94;98776.70;105495;1282;96585;-65
2022/05/03 02:39:54;;;;;;;27.80;13.70;;;;;;;10.01;44.27;98767.16;105439;1283;107246;-65
2022/05/03 02:42:22;;;;;;;29.50;13.70;;;;;;;9.92;44.24;98763.55;105511;1283;99076;-67
2022/05/03 02:44:56;;;;;;;28.60;14.50;;;;;;;9.89;44.53;98757.45;105436;1283;96385;-65
2022/05/03 02:47:42;;;;;;;28.10;14.70;;;;;;;9.80;44.52;98755.83;105461;1283;111358;-67
2022/05/03 02:50:48;;;;;;;28.20;14.70;;;;;;;9.74;44.98;98758.95;105509;1283;97922;-68
2022/05/03 02:53:38;;;;;;;28.30;15.90;;;;;;;9.64;44.95;98757.85;105093;1283;107955;-67
2022/05/03 02:56:17;;;;;;;26.50;13.90;;;;;;;9.61;45.12;98757.89;105438;1283;97959;-68
2022/05/03 02:58:59;;;;;;;29.90;15.50;;;;;;;9.61;45.11;98754.87;105455;1283;97904;-67
2022/05/03 03:04:44;;;;;;;29.10;14.60;;;;;;;9.63;45.43;98766.95;105512;1283;97915;-68
2022/05/03 03:07:20;;;;;;;28.60;14.60;;;;;;;9.68;45.76;98769.45;105302;1283;108498;-68
2022/05/03 03:10:03;;;;;;;27.50;15.50;;;;;;;9.74;45.68;98776.23;105466;1283;98033;-64
2022/05/03 03:12:50;;;;;;;29.00;15.40;;;;;;;9.81;45.81;98773.96;105339;1283;97788;-65
2022/05/03 03:15:26;;;;;;;31.40;15.70;;;;;;;9.88;45.97;98768.34;105389;1284;112101;-67
2022/05/03 03:17:58;;;;;;;34.30;18.90;;;;;;;9.93;45.94;98772.94;105534;1283;97875;-62
2022/05/03 03:20:30;;;;;;;35.80;18.80;;;;;;;9.98;45.95;98773.58;105511;1283;108838;-63
2022/05/03 03:22:58;;;;;;;32.50;18.80;;;;;;;10.03;46.06;98775.54;105438;1283;97627;-65
2022/05/03 03:25:29;;;;;;;31.50;19.00;;;;;;;10.07;46.09;98775.59;105538;1283;97897;-64
2022/05/03 03:28:02;;;;;;;34.30;17.80;;;;;;;10.12;46.14;98777.02;105475;1283;111975;-65
2022/05/03 03:30:31;;;;;;;32.60;17.70;;;;;;;10.16;46.23;98774.59;105607;1283;97910;-67
2022/05/03 03:33:03;;;;;;;33.40;18.30;;;;;;;10.21;46.24;98777.14;105493;1283;107986;-65
2022/05/03 03:35:35;;;;;;;33.30;19.20;;;;;;;10.27;46.32;98768.42;105461;1283;95326;-68
2022/05/03 03:38:10;;;;;;;34.90;17.90;;;;;;;10.32;46.35;98771.44;105583;1283;95185;-68
2022/05/03 03:40:45;;;;;;;33.80;18.50;;;;;;;10.36;46.30;98768.45;105622;1283;111370;-67
2022/05/03 03:43:16;;;;;;;33.90;17.00;;;;;;;10.40;46.43;98763.55;104414;1283;1536078;-67
2022/05/03 03:45:46;;;;;;;31.50;17.10;;;;;;;10.45;46.41;98763.38;105439;1284;108023;-64
2022/05/03 03:48:18;;;;;;;33.20;17.90;;;;;;;10.49;46.43;98764.14;105527;1282;99402;-67
2022/05/03 03:50:52;;;;;;;34.80;19.60;;;;;;;10.53;46.59;98764.89;105530;1283;98036;-68
2022/05/03 03:53:25;;;;;;;35.50;18.40;;;;;;;10.57;46.75;98767.77;105481;1283;111536;-66
2022/05/03 03:55:58;;;;;;;39.10;19.20;;;;;;;10.61;46.74;98764.78;105598;1283;97988;-66
2022/05/03 03:58:28;;;;;;;34.30;19.70;;;;;;;10.65;46.85;98765.87;105373;1283;107757;-67
2022/05/03 04:00:56;;;;;;;35.00;18.50;;;;;;;10.70;46.82;98769.23;105586;1283;97954;-66
2022/05/03 04:03:29;;;;;;;31.60;17.00;;;;;;;10.75;46.94;98775.05;105611;1282;97915;-68
2022/05/03 04:05:57;;;;;;;32.50;18.40;;;;;;;10.80;46.80;98782.98;105518;1283;112005;-67
2022/05/03 04:08:30;;;;;;;32.70;16.70;;;;;;;10.81;46.76;98774.06;105514;1283;95276;-65
2022/05/03 04:10:58;;;;;;;33.20;17.20;;;;;;;10.77;46.81;98775.95;105514;1283;108507;-67
2022/05/03 04:13:26;;;;;;;33.40;17.90;;;;;;;10.76;46.93;98774.24;105530;1283;95287;-68
2022/05/03 04:15:58;;;;;;;29.40;15.80;;;;;;;10.79;47.07;98770.52;105629;1283;97909;-66
2022/05/03 04:18:44;;;;;;;30.00;13.50;;;;;;;10.80;46.78;98765.79;105473;1283;111942;-67
2022/05/03 04:21:20;;;;;;;26.90;13.70;;;;;;;10.77;46.81;98767.48;105516;1283;97866;-68
2022/05/03 04:23:49;;;;;;;27.50;13.00;;;;;;;10.77;46.98;98767.48;105557;1283;108187;-67
2022/05/03 04:26:16;;;;;;;28.00;13.40;;;;;;;10.82;47.03;98777.00;105516;1283;95328;-66
2022/05/03 04:28:44;;;;;;;26.60;13.40;;;;;;;10.90;47.19;98781.17;105596;1283;97929;-63
2022/05/03 04:31:16;;;;;;;30.70;16.20;;;;;;;10.97;47.42;98783.28;105515;1283;112435;-66
2022/05/03 04:33:47;;;;;;;31.10;16.50;;;;;;;11.05;47.54;98779.98;105541;1283;98027;-67
2022/05/03 04:36:15;;;;;;;30.80;15.60;;;;;;;11.11;47.34;98772.43;105513;1283;108180;-69
2022/05/03 04:38:43;;;;;;;29.70;17.10;;;;;;;11.11;47.32;98777.91;105472;1283;97970;-68
2022/05/03 04:41:11;;;;;;;32.70;17.70;;;;;;;11.14;47.53;98780.50;105599;1283;97837;-68
2022/05/03 04:43:43;;;;;;;30.80;17.80;;;;;;;11.24;47.65;98785.80;105523;1283;110486;-67
2022/05/03 04:46:11;;;;;;;32.00;17.30;;;;;;;11.33;47.80;98789.48;105422;1282;99416;-68
2022/05/03 04:48:43;;;;;;;30.60;18.20;;;;;;;11.41;47.86;98790.47;105475;1283;108608;-68
2022/05/03 04:51:24;;;;;;;33.40;18.10;;;;;;;11.47;47.88;98792.41;105356;1284;97949;-66
2022/05/03 04:53:52;;;;;;;32.50;17.70;;;;;;;11.56;47.81;98794.80;105489;1282;97910;-68
2022/05/03 04:56:25;;;;;;;31.90;17.20;;;;;;;11.63;47.85;98800.26;105388;1283;112399;-68
2022/05/03 04:58:57;;;;;;;31.90;17.70;;;;;;;11.69;47.85;98800.27;105468;1283;97909;-71
2022/05/03 05:01:26;;;;;;;33.20;17.50;;;;;;;11.75;47.89;98802.43;105444;1282;107411;-68
2022/05/03 05:03:58;;;;;;;28.20;16.00;;;;;;;11.80;47.75;98795.48;105446;1283;97752;-68
2022/05/03 05:06:28;;;;;;;31.00;15.00;;;;;;;11.81;47.63;98796.09;105394;1282;95335;-67
2022/05/03 05:08:58;;;;;;;27.00;13.80;;;;;;;11.81;47.51;98795.23;105423;1283;112195;-67
2022/05/03 05:11:26;;;;;;;27.20;13.80;;;;;;;11.86;47.69;98799.45;105439;1283;96418;-68
2022/05/03 05:13:54;;;;;;;29.20;14.20;;;;;;;11.93;47.88;98798.67;105388;1283;108426;-67
2022/05/03 05:16:22;;;;;;;26.40;14.30;;;;;;;12.01;47.77;98797.37;105441;1283;97965;-66
2022/05/03 05:18:52;;;;;;;25.40;13.20;;;;;;;12.09;47.80;98800.78;105505;1283;97973;-66
2022/05/03 05:21:20;;;;;;;27.10;13.60;;;;;;;12.18;47.93;98803.21;105512;1283;112105;-67
2022/05/03 05:23:48;;;;;;;26.20;13.80;;;;;;;12.29;47.87;98803.42;105506;1283;98026;-67
2022/05/03 05:26:16;;;;;;;24.00;12.50;;;;;;;12.37;47.73;98800.94;105505;1283;110849;-68
2022/05/03 05:28:44;;;;;;;23.30;11.40;;;;;;;12.46;47.81;98798.05;105501;1283;97890;-67
2022/05/03 05:31:12;;;;;;;24.30;12.40;;;;;;;12.56;47.98;98799.04;105425;1283;97884;-67
2022/05/03 05:33:44;;;;;;;22.70;12.20;;;;;;;12.62;48.06;98799.02;105327;1284;112098;-69
2022/05/03 05:36:15;;;;;;;23.80;11.70;;;;;;;12.69;48.01;98802.39;105453;1283;95292;-68
2022/05/03 05:38:43;;;;;;;25.90;11.40;;;;;;;12.76;47.99;98806.52;105418;1283;108251;-67
2022/05/03 05:41:14;;;;;;;26.70;12.80;;;;;;;12.81;48.02;98810.05;105465;1283;97890;-69
2022/05/03 05:43:43;;;;;;;21.70;11.50;;;;;;;12.88;48.15;98810.19;105492;1283;98073;-68
2022/05/03 05:46:15;;;;;;;25.40;12.40;;;;;;;12.95;48.06;98808.86;105403;1283;111357;-67
2022/05/03 05:48:44;;;;;;;24.10;11.90;;;;;;;13.04;48.25;98812.02;105414;1282;98006;-68
2022/05/03 05:51:15;;;;;;;22.70;11.20;;;;;;;13.13;48.12;98814.58;105468;1283;108494;-66
2022/05/03 05:53:43;;;;;;;23.20;10.60;;;;;;;13.21;48.12;98820.42;105288;1283;99024;-69
2022/05/03 05:56:14;;;;;;;23.10;11.10;;;;;;;13.26;48.08;98822.38;105354;1283;95420;-72
2022/05/03 05:58:47;;;;;;;;;;;;;;;13.29;48.08;98821.02;105434;1281;111445;-69
2022/05/03 06:01:15;;;;;;;22.60;10.50;;;;;;;13.33;48.30;98820.16;105470;1283;97912;-68
2022/05/03 06:03:46;;;;;;;21.00;10.50;;;;;;;13.38;48.07;98823.13;105454;1282;107727;-68
2022/05/03 06:06:15;;;;;;;24.20;11.40;;;;;;;13.41;48.10;98825.20;105447;1282;99025;-69
2022/05/03 06:08:45;;;;;;;23.60;11.40;;;;;;;13.45;48.12;98824.51;105503;1283;97996;-70
2022/05/03 06:11:14;;;;;;;24.30;12.10;;;;;;;13.48;48.02;98827.27;105487;1281;112052;-69
2022/05/03 06:13:43;;;;;;;21.50;10.50;;;;;;;13.52;47.99;98824.56;105569;1281;96444;-68
2022/05/03 06:16:12;;;;;;;21.10;10.90;;;;;;;13.58;47.87;98827.48;105418;1283;107864;-69
2022/05/03 06:18:41;;;;;;;23.40;11.70;;;;;;;13.67;47.80;98823.95;105322;1282;97895;-70
2022/05/03 06:21:12;;;;;;;24.10;11.70;;;;;;;13.75;47.89;98824.54;105397;1283;97859;-69
2022/05/03 06:23:40;;;;;;;20.40;11.00;;;;;;;13.85;48.03;98824.47;105546;1281;111280;-69
2022/05/03 06:26:09;;;;;;;23.20;11.20;;;;;;;13.97;47.89;98821.81;105339;1282;97100;-69
2022/05/03 06:28:48;;;;;;;24.80;11.50;;;;;;;14.10;48.03;98825.78;105472;1281;107756;-69
2022/05/03 06:31:20;;;;;;;23.00;10.80;;;;;;;14.23;47.96;98828.21;105268;1281;96517;-69
2022/05/03 06:33:49;;;;;;;22.60;11.50;;;;;;;14.34;47.92;98821.33;105478;1282;97865;-69
2022/05/03 06:36:17;;;;;;;20.80;10.80;;;;;;;14.45;47.89;98818.50;105464;1281;111415;-68
2022/05/03 06:38:44;;;;;;;24.50;11.80;;;;;;;14.57;47.86;98820.99;105481;1281;97949;-71
2022/05/03 06:41:13;;;;;;;23.30;12.00;;;;;;;14.59;47.82;98820.23;105551;1281;106779;-68
2022/05/03 06:43:45;;;;;;;24.00;11.50;;;;;;;14.62;47.76;98820.58;105333;1282;97973;-69
2022/05/03 06:46:15;;;;;;;22.10;11.40;;;;;;;14.61;47.85;98822.46;105287;1283;95347;-68
2022/05/03 06:48:47;;;;;;;22.00;10.90;;;;;;;14.66;47.81;98816.77;105526;1281;111332;-68
2022/05/03 06:51:15;;;;;;;22.70;11.30;;;;;;;14.74;47.90;98817.50;105505;1283;95209;-71
2022/05/03 06:53:42;;;;;;;20.80;10.50;;;;;;;14.81;47.86;98813.94;105461;1283;108447;-69
2022/05/03 06:56:14;;;;;;;22.70;10.60;;;;;;;14.94;47.80;98813.66;105460;1281;97541;-69
2022/05/03 06:58:49;;;;;;;23.10;10.70;;;;;;;15.05;47.72;98814.59;105425;1283;97868;-69
2022/05/03 07:01:17;;;;;;;20.60;10.40;;;;;;;15.12;47.70;98812.84;105393;1281;111423;-68
2022/05/03 07:03:47;;;;;;;21.80;10.50;;;;;;;15.24;47.83;98811.36;105449;1281;95277;-68
2022/05/03 07:06:21;;;;;;;19.30;10.20;;;;;;;16.06;47.05;98801.00;105440;1282;108369;-69
2022/05/03 07:08:49;;;;;;;19.90;10.40;;;;;;;17.85;45.96;98800.55;105295;1284;97945;-70
2022/05/03 07:11:17;;;;;;;19.80;9.20;;;;;;;19.56;45.84;98789.91;105531;1281;97970;-70
2022/05/03 07:13:48;;;;;;;18.20;8.50;;;;;;;21.10;45.78;98792.53;105516;1283;111547;-71
2022/05/03 07:16:24;;;;;;;18.50;9.40;;;;;;;22.55;45.20;98786.52;105497;1281;97930;-70
2022/05/03 07:24:27;;;;;;;16.50;7.50;;;;;;;26.37;44.63;98786.92;105349;1284;97213;-67
2022/05/03 07:27:05;;;;;;;15.80;7.20;;;;;;;27.42;44.29;98784.41;105520;1283;112093;-69
2022/05/03 07:29:33;;;;;;;16.90;7.50;;;;;;;28.36;44.42;98783.06;105545;1283;97665;-69
2022/05/03 07:32:06;;;;;;;17.40;7.70;;;;;;;28.88;43.77;98785.70;105324;1284;108381;-68
2022/05/03 07:34:34;;;;;;;14.30;7.30;;;;;;;29.16;43.55;98787.41;105539;1282;96394;-69
2022/05/03 07:37:05;;;;;;;14.50;7.80;;;;;;;29.54;43.05;98790.91;105589;1282;97968;-68
2022/05/03 07:39:33;;;;;;;16.60;7.80;;;;;;;30.17;42.78;98792.83;105553;1283;111992;-69
2022/05/03 07:42:01;;;;;;;15.30;7.00;;;;;;;30.72;42.45;98791.70;105564;1283;96416;-69
2022/05/03 07:44:30;;;;;;;11.10;6.40;;;;;;;31.25;42.19;98789.67;105387;1282;108832;-67
2022/05/03 07:47:02;;;;;;;15.50;7.60;;;;;;;31.78;41.46;98786.36;105498;1283;95339;-70
2022/05/03 07:49:30;;;;;;;13.10;6.40;;;;;;;32.56;41.30;98784.42;105468;1283;97785;-71
2022/05/03 07:51:58;;;;;;;14.50;6.60;;;;;;;32.92;40.64;98786.28;105537;1283;111526;-69
2022/05/03 07:54:26;;;;;;;14.20;6.60;;;;;;;33.77;40.44;98786.73;105609;1283;98442;-70
2022/05/03 07:56:54;;;;;;;14.00;6.90;;;;;;;34.39;39.86;98792.98;105545;1283;107816;-69
2022/05/03 07:59:25;;;;;;;12.80;6.60;;;;;;;34.51;39.26;98795.70;105119;1283;97970;-70
2022/05/03 08:01:54;;;;;;;13.10;6.70;;;;;;;34.50;38.56;98794.31;105294;1283;97880;-69
2022/05/03 08:04:34;;;;;;;11.20;6.20;;;;;;;34.42;38.18;98797.02;105466;1283;111839;-69
2022/05/03 08:07:03;;;;;;;12.40;6.20;;;;;;;34.39;37.75;98796.02;105500;1282;98436;-70
2022/05/03 08:09:34;;;;;;;12.00;5.60;;;;;;;34.66;37.51;98792.10;105478;1283;108494;-69
2022/05/03 08:12:06;;;;;;;11.30;5.70;;;;;;;35.17;37.34;98790.90;105497;1282;98047;-69
2022/05/03 08:14:33;;;;;;;11.00;5.90;;;;;;;35.74;37.00;98790.56;105471;1282;95310;-70
2022/05/03 08:17:02;;;;;;;10.40;5.90;;;;;;;36.36;36.58;98787.36;105479;1283;111887;-69
2022/05/03 08:19:30;;;;;;;9.50;5.90;;;;;;;36.62;36.19;98790.31;105522;1283;98486;-69
2022/05/03 08:22:00;;;;;;;10.30;5.30;;;;;;;36.96;35.77;98789.88;105454;1283;108300;-69
2022/05/03 08:24:29;;;;;;;9.30;5.30;;;;;;;37.29;35.36;98788.61;105512;1283;95948;-69
2022/05/03 08:26:59;;;;;;;10.50;5.50;;;;;;;37.72;35.29;98787.92;105487;1283;97862;-69
2022/05/03 08:29:31;;;;;;;10.40;5.30;;;;;;;38.04;34.57;98790.54;105521;1283;112137;-68
2022/05/03 08:32:01;;;;;;;11.00;4.90;;;;;;;38.19;33.77;98792.41;105557;1283;96524;-69
2022/05/03 08:34:30;;;;;;;8.20;5.20;;;;;;;38.16;33.32;98789.85;105566;1283;108240;-71
2022/05/03 08:42:32;;;;;;;6.30;4.00;;;;;;;37.11;31.05;98789.04;105403;1283;111225;-69
2022/05/03 08:45:01;;;;;;;7.90;4.20;;;;;;;36.47;30.89;98787.77;105505;1283;96357;-69
2022/05/03 08:47:32;;;;;;;7.80;4.20;;;;;;;36.06;30.23;98786.29;105485;1283;108430;-72
2022/05/03 08:50:08;;;;;;;5.10;3.80;;;;;;;35.98;30.31;98783.70;105517;1283;98067;-70
2022/05/03 08:52:50;;;;;;;6.70;4.30;;;;;;;36.46;30.15;98780.64;105586;1282;97892;-72
2022/05/03 08:55:21;;;;;;;6.70;4.20;;;;;;;36.54;29.21;98777.86;105253;1283;111296;-70
2022/05/03 08:57:50;;;;;;;11.10;4.60;;;;;;;36.45;28.97;98775.00;105485;1283;95755;-71
2022/05/03 09:00:19;;;;;;;7.40;4.30;;;;;;;36.31;28.81;98773.82;105551;1283;108047;-70
2022/05/03 09:02:47;;;;;;;8.30;4.50;;;;;;;36.01;28.29;98773.38;105465;1283;95205;-72
2022/05/03 09:05:16;;;;;;;7.80;4.40;;;;;;;35.77;27.85;98773.34;105522;1283;95186;-70
2022/05/03 09:07:50;;;;;;;8.80;4.40;;;;;;;34.97;27.74;98775.48;105342;1283;111138;-67
2022/05/03 09:10:28;;;;;;;9.30;4.50;;;;;;;34.45;27.26;98775.54;105519;1282;97787;-69
2022/05/03 09:13:20;;;;;;;10.50;4.80;;;;;;;34.17;27.11;98769.34;105575;1283;108496;-67
2022/05/03 09:16:12;;;;;;;10.00;4.70;;;;;;;33.84;27.15;98767.83;105538;1283;96429;-68
2022/05/03 09:18:44;;;;;;;11.30;5.00;;;;;;;34.15;27.04;98769.06;105555;1283;98004;-68
2022/05/03 09:24:17;;;;;;;12.00;4.90;;;;;;;33.01;26.53;98764.30;105615;1283;98391;-68
2022/05/03 09:26:52;;;;;;;9.60;4.90;;;;;;;32.37;26.41;98760.38;105602;1282;107605;-69
2022/05/03 09:29:20;;;;;;;;;;;;;;;31.85;26.39;98765.45;105604;1283;97899;-69
2022/05/03 09:31:52;;;;;;;10.50;4.50;;;;;;;31.47;26.22;98761.78;105523;1283;97956;-69
2022/05/03 09:34:26;;;;;;;11.50;5.20;;;;;;;31.56;25.82;98761.93;105635;1283;112035;-68
2022/05/03 09:37:05;;;;;;;11.10;4.90;;;;;;;31.46;25.98;98764.30;105570;1283;98384;-67
2022/05/03 09:39:47;;;;;;;10.70;4.80;;;;;;;30.78;25.59;98765.93;105569;1283;108355;-66
2022/05/03 09:42:24;;;;;;;8.30;4.90;;;;;;;30.06;25.44;98764.88;105569;1282;98468;-68
2022/05/03 09:45:00;;;;;;;10.90;5.10;;;;;;;29.39;25.42;98765.17;105299;1283;95328;-68
2022/05/03 09:47:47;;;;;;;7.50;5.00;;;;;;;28.84;25.46;98766.06;105510;1283;111590;-68
2022/05/03 09:50:47;;;;;;;10.40;5.00;;;;;;;28.14;25.05;98762.99;105473;1283;98512;-69
2022/05/03 09:53:22;;;;;;;10.50;4.80;;;;;;;27.42;24.95;98765.14;105293;1283;108624;-68
2022/05/03 09:55:50;;;;;;;9.60;4.90;;;;;;;26.88;25.35;98768.00;105413;1283;96517;-67
2022/05/03 09:58:20;;;;;;;10.90;4.80;;;;;;;26.52;25.06;98770.38;105491;1283;97839;-70
2022/05/03 10:00:50;;;;;;;9.10;4.80;;;;;;;26.28;25.15;98767.73;105565;1283;111425;-70
2022/05/03 10:03:21;;;;;;;10.20;5.50;;;;;;;26.05;25.11;98767.11;105486;1283;97984;-71
2022/05/03 10:05:50;;;;;;;11.60;5.50;;;;;;;25.80;25.18;98767.69;105429;1283;107873;-69
2022/05/03 10:08:21;;;;;;;10.80;4.90;;;;;;;25.45;25.11;98769.11;105472;1283;95942;-69
2022/05/03 10:10:57;;;;;;;11.40;5.30;;;;;;;25.00;25.16;98764.51;105465;1283;96521;-68
2022/05/03 10:13:27;;;;;;;13.30;5.00;;;;;;;24.55;25.12;98759.95;105447;1283;111516;-69
2022/05/03 10:21:53;;;;;;;14.30;5.10;;;;;;;22.88;25.46;98769.39;106203;1281;97954;-69
2022/05/03 10:24:23;;;;;;;13.00;5.50;;;;;;;22.42;25.35;98774.38;105373;1282;97929;-67
2022/05/03 10:26:54;;;;;;;10.70;5.00;;;;;;;22.02;25.52;98778.77;106302;1281;112019;-69
2022/05/03 10:29:25;;;;;;;16.90;5.70;;;;;;;21.68;25.65;98777.69;105654;1281;98096;-68
2022/05/03 10:32:05;;;;;;;9.00;4.70;;;;;;;21.50;25.80;98775.71;107077;1282;108474;-67
2022/05/03 10:34:49;;;;;;;8.50;4.60;;;;;;;21.38;25.66;98774.83;107100;1281;95801;-68
2022/05/03 10:37:38;;;;;;;11.10;4.10;;;;;;;21.36;26.04;98777.27;105711;1281;99003;-68
2022/05/03 10:40:14;;;;;;;8.00;4.00;;;;;;;21.40;26.09;98776.63;104981;1284;111144;-68
2022/05/03 10:43:09;;;;;;;8.00;4.40;;;;;;;21.48;26.46;98769.66;105550;1283;98097;-68
2022/05/03 10:45:57;;;;;;;9.20;4.30;;;;;;;21.57;26.30;98767.31;105506;1282;108346;-68
2022/05/03 10:48:34;;;;;;;9.20;4.70;;;;;;;21.67;26.54;98766.27;105360;1283;97880;-68
2022/05/03 10:51:04;;;;;;;8.50;4.30;;;;;;;21.80;26.58;98761.97;105508;1282;97975;-69
2022/05/03 10:53:41;;;;;;;9.70;4.60;;;;;;;21.82;26.49;98755.23;105518;1283;111754;-70
2022/05/03 10:56:13;;;;;;;9.20;4.40;;;;;;;21.88;26.71;98754.52;105520;1283;97960;-69
2022/05/03 10:58:45;;;;;;;8.80;4.10;;;;;;;22.00;26.78;98751.33;105322;1283;108501;-68
2022/05/03 11:01:20;;;;;;;9.90;3.80;;;;;;;22.16;26.85;98751.77;105543;1282;98570;-67
2022/05/03 11:03:54;;;;;;;8.50;3.70;;;;;;;22.16;26.64;98748.07;105522;1283;97926;-68
2022/05/03 11:06:28;;;;;;;8.60;4.20;;;;;;;22.21;26.60;98739.56;105486;1283;112115;-67
2022/05/03 11:09:09;;;;;;;7.80;3.80;;;;;;;22.32;26.67;98739.61;105495;1283;96608;-69
2022/05/03 11:14:15;;;;;;;8.40;4.10;;;;;;;22.60;26.93;98742.81;105486;1283;97951;-69
2022/05/03 11:16:47;;;;;;;6.80;3.60;;;;;;;22.77;27.15;98741.67;105481;1283;97728;-67
2022/05/03 11:19:28;;;;;;;7.20;3.70;;;;;;;22.93;27.08;98736.38;105498;1283;111029;-68
2022/05/03 11:21:58;;;;;;;9.00;3.70;;;;;;;22.90;26.82;98734.40;105289;1283;96319;-67
2022/05/03 11:24:32;;;;;;;10.20;3.70;;;;;;;22.88;27.20;98734.34;105462;1282;108455;-69
2022/05/03 11:27:05;;;;;;;6.30;4.00;;;;;;;22.87;27.16;98736.34;105495;1282;97905;-68
2022/05/03 11:29:41;;;;;;;9.70;4.30;;;;;;;22.88;27.22;98737.56;105534;1282;97978;-68
2022/05/03 11:32:10;;;;;;;7.90;4.00;;;;;;;22.87;27.29;98729.37;105522;1282;111221;-68
2022/05/03 11:34:39;;;;;;;10.30;4.80;;;;;;;22.83;26.97;98728.13;105569;1283;97848;-68
2022/05/03 11:37:12;;;;;;;13.30;6.80;;;;;;;22.83;27.21;98727.23;105522;1283;108415;-67
2022/05/03 11:39:40;;;;;;;15.90;7.80;;;;;;;22.92;27.41;98725.32;105592;1282;97901;-68
2022/05/03 11:42:10;;;;;;;7.90;4.40;;;;;;;22.97;27.40;98723.73;105562;1283;97879;-69
2022/05/03 11:44:44;;;;;;;10.60;4.80;;;;;;;23.05;27.42;98725.46;105529;1282;111759;-69
2022/05/03 11:47:15;;;;;;;9.60;4.30;;;;;;;23.10;27.21;98721.55;105485;1283;98001;-68
2022/05/03 11:49:47;;;;;;;10.90;4.50;;;;;;;23.09;27.31;98722.52;105514;1283;108423;-67
2022/05/03 11:57:58;;;;;;;10.90;5.10;;;;;;;22.92;27.37;98714.05;105524;1283;112313;-69
2022/05/03 12:00:29;;;;;;;12.20;5.70;;;;;;;22.87;27.40;98708.39;105522;1283;98586;-68
2022/05/03 12:03:02;;;;;;;10.30;5.50;;;;;;;22.75;27.33;98704.84;105499;1283;108302;-68
2022/05/03 12:05:36;;;;;;;11.00;5.10;;;;;;;22.67;27.16;98702.85;105545;1282;95342;-68
2022/05/03 12:08:17;;;;;;;11.00;4.80;;;;;;;22.65;27.47;98699.75;105250;1283;97942;-68
2022/05/03 12:10:45;;;;;;;12.00;5.00;;;;;;;22.62;27.61;98696.83;105579;1283;110462;-68
2022/05/03 12:13:29;;;;;;;10.20;4.70;;;;;;;22.57;27.39;98695.13;105572;1283;97911;-66
2022/05/03 12:15:57;;;;;;;17.00;5.10;;;;;;;22.33;27.28;98692.53;105520;1282;107598;-69
2022/05/03 12:18:48;;;;;;;14.70;6.00;;;;;;;22.21;27.24;98692.48;105574;1283;96335;-68